sensor_id;sensor_type;location;lat;lon;timestamp;temperature;humidity
12568;DHT22;6349;50.904;6.136;2023-08-12T00:01:48;21.40;99.90
12568;DHT22;6349;50.904;6.136;2023-08-12T00:03:49;21.40;99.90
12568;DHT22;6349;50.904;6.136;2023-08-12T00:05:50;21.40;99.90
12568;DHT22;6349;50.904;6.136;2023-08-12T00:07:50;21.40;99.90
12568;DHT22;6349;50.904;6.136;2023-08-12T00:09:51;21.30;99.90
12568;DHT22;6349;50.904;6.136;2023-08-12T00:11:51;21.30;99.90
12568;DHT22;6349;50.904;6.136;2023-08-12T00:13:52;21.40;99.90
12568;DHT22;6349;50.904;6.136;2023-08-12T00:15:56;21.30;99.90
12568;DHT22;6349;50.904;6.136;2023-08-12T00:18:01;21.40;99.90
12568;DHT22;6349;50.904;6.136;2023-08-12T00:20:05;21.40;99.90
12568;DHT22;6349;50.904;6.136;2023-08-12T00:22:06;21.30;99.90
12568;DHT22;6349;50.904;6.136;2023-08-12T00:24:07;21.40;99.90
12568;DHT22;6349;50.904;6.136;2023-08-12T00:26:14;21.30;99.90
12568;DHT22;6349;50.904;6.136;2023-08-12T00:28:15;21.30;99.90
12568;DHT22;6349;50.904;6.136;2023-08-12T00:30:15;21.30;99.90
12568;DHT22;6349;50.904;6.136;2023-08-12T00:32:16;21.30;99.90
12568;DHT22;6349;50.904;6.136;2023-08-12T00:34:17;21.30;99.90
12568;DHT22;6349;50.904;6.136;2023-08-12T00:36:18;21.30;99.90
12568;DHT22;6349;50.904;6.136;2023-08-12T00:38:18;21.30;99.90
12568;DHT22;6349;50.904;6.136;2023-08-12T00:40:19;21.30;99.90
12568;DHT22;6349;50.904;6.136;2023-08-12T00:42:20;21.30;99.90
12568;DHT22;6349;50.904;6.136;2023-08-12T00:44:20;21.30;99.90
12568;DHT22;6349;50.904;6.136;2023-08-12T00:46:21;21.30;99.90
12568;DHT22;6349;50.904;6.136;2023-08-12T00:48:22;21.30;99.90
12568;DHT22;6349;50.904;6.136;2023-08-12T00:50:23;21.30;99.90
12568;DHT22;6349;50.904;6.136;2023-08-12T00:52:24;21.30;99.90
12568;DHT22;6349;50.904;6.136;2023-08-12T00:54:26;21.30;99.90
12568;DHT22;6349;50.904;6.136;2023-08-12T00:56:27;21.30;99.90
12568;DHT22;6349;50.904;6.136;2023-08-12T00:58:27;21.30;99.90
12568;DHT22;6349;50.904;6.136;2023-08-12T01:00:28;21.20;99.90
12568;DHT22;6349;50.904;6.136;2023-08-12T01:02:29;21.40;99.90
12568;DHT22;6349;50.904;6.136;2023-08-12T01:04:30;21.40;99.90
12568;DHT22;6349;50.904;6.136;2023-08-12T01:06:31;21.50;99.90
12568;DHT22;6349;50.904;6.136;2023-08-12T01:08:32;21.50;99.90
12568;DHT22;6349;50.904;6.136;2023-08-12T01:10:37;21.50;99.90
12568;DHT22;6349;50.904;6.136;2023-08-12T01:12:47;21.40;99.90
12568;DHT22;6349;50.904;6.136;2023-08-12T01:15:07;21.50;99.90
12568;DHT22;6349;50.904;6.136;2023-08-12T01:17:11;21.40;99.90
12568;DHT22;6349;50.904;6.136;2023-08-12T01:19:26;21.40;99.90
12568;DHT22;6349;50.904;6.136;2023-08-12T01:21:31;21.40;99.90
12568;DHT22;6349;50.904;6.136;2023-08-12T01:23:33;21.40;99.90
12568;DHT22;6349;50.904;6.136;2023-08-12T01:25:33;21.30;99.90
12568;DHT22;6349;50.904;6.136;2023-08-12T01:27:37;21.30;99.90
12568;DHT22;6349;50.904;6.136;2023-08-12T01:29:49;21.30;99.90
12568;DHT22;6349;50.904;6.136;2023-08-12T01:31:55;21.30;99.90
12568;DHT22;6349;50.904;6.136;2023-08-12T01:34:04;21.30;99.90
12568;DHT22;6349;50.904;6.136;2023-08-12T01:36:19;21.30;99.90
12568;DHT22;6349;50.904;6.136;2023-08-12T01:38:21;21.30;99.90
12568;DHT22;6349;50.904;6.136;2023-08-12T01:40:24;21.30;99.90
12568;DHT22;6349;50.904;6.136;2023-08-12T01:42:25;21.30;99.90
12568;DHT22;6349;50.904;6.136;2023-08-12T01:44:26;21.30;99.90
12568;DHT22;6349;50.904;6.136;2023-08-12T01:46:27;21.20;99.90
12568;DHT22;6349;50.904;6.136;2023-08-12T01:48:27;21.20;99.90
12568;DHT22;6349;50.904;6.136;2023-08-12T01:50:28;21.20;99.90
12568;DHT22;6349;50.904;6.136;2023-08-12T01:52:28;21.20;99.90
12568;DHT22;6349;50.904;6.136;2023-08-12T01:54:29;21.20;99.90
12568;DHT22;6349;50.904;6.136;2023-08-12T01:56:33;21.10;99.90
12568;DHT22;6349;50.904;6.136;2023-08-12T01:58:34;21.10;99.90
12568;DHT22;6349;50.904;6.136;2023-08-12T02:00:35;21.10;99.90
12568;DHT22;6349;50.904;6.136;2023-08-12T02:02:35;21.10;99.90
12568;DHT22;6349;50.904;6.136;2023-08-12T02:04:37;21.10;99.90
12568;DHT22;6349;50.904;6.136;2023-08-12T02:06:38;21.00;99.90
12568;DHT22;6349;50.904;6.136;2023-08-12T02:08:38;21.00;99.90
12568;DHT22;6349;50.904;6.136;2023-08-12T02:10:39;21.00;99.90
12568;DHT22;6349;50.904;6.136;2023-08-12T02:12:40;21.00;99.90
12568;DHT22;6349;50.904;6.136;2023-08-12T02:14:40;21.00;99.90
12568;DHT22;6349;50.904;6.136;2023-08-12T02:16:41;21.00;99.90
12568;DHT22;6349;50.904;6.136;2023-08-12T02:18:41;21.00;99.90
12568;DHT22;6349;50.904;6.136;2023-08-12T02:20:42;21.10;99.90
12568;DHT22;6349;50.904;6.136;2023-08-12T02:22:42;21.10;99.90
12568;DHT22;6349;50.904;6.136;2023-08-12T02:24:43;21.10;99.90
12568;DHT22;6349;50.904;6.136;2023-08-12T02:26:43;21.00;99.90
12568;DHT22;6349;50.904;6.136;2023-08-12T02:28:44;21.00;99.90
12568;DHT22;6349;50.904;6.136;2023-08-12T02:30:44;21.00;99.90
12568;DHT22;6349;50.904;6.136;2023-08-12T02:32:45;21.00;99.90
12568;DHT22;6349;50.904;6.136;2023-08-12T02:34:46;20.90;99.90
12568;DHT22;6349;50.904;6.136;2023-08-12T02:36:47;20.90;99.90
12568;DHT22;6349;50.904;6.136;2023-08-12T02:38:47;20.90;99.90
12568;DHT22;6349;50.904;6.136;2023-08-12T02:40:49;20.90;99.90
12568;DHT22;6349;50.904;6.136;2023-08-12T02:42:50;20.90;99.90
12568;DHT22;6349;50.904;6.136;2023-08-12T02:44:50;20.90;99.90
12568;DHT22;6349;50.904;6.136;2023-08-12T02:46:51;20.90;99.90
12568;DHT22;6349;50.904;6.136;2023-08-12T02:48:51;20.80;99.90
12568;DHT22;6349;50.904;6.136;2023-08-12T02:50:52;20.90;99.90
12568;DHT22;6349;50.904;6.136;2023-08-12T02:52:52;20.90;99.90
12568;DHT22;6349;50.904;6.136;2023-08-12T02:54:53;20.90;99.90
12568;DHT22;6349;50.904;6.136;2023-08-12T02:56:55;20.90;99.90
12568;DHT22;6349;50.904;6.136;2023-08-12T02:58:55;20.90;99.90
12568;DHT22;6349;50.904;6.136;2023-08-12T03:00:56;20.90;99.90
12568;DHT22;6349;50.904;6.136;2023-08-12T03:02:57;20.90;99.90
12568;DHT22;6349;50.904;6.136;2023-08-12T03:04:57;20.90;99.90
12568;DHT22;6349;50.904;6.136;2023-08-12T03:06:58;20.80;99.90
12568;DHT22;6349;50.904;6.136;2023-08-12T03:08:58;20.90;99.90
12568;DHT22;6349;50.904;6.136;2023-08-12T03:11:00;20.80;99.90
12568;DHT22;6349;50.904;6.136;2023-08-12T03:13:01;20.80;99.90
12568;DHT22;6349;50.904;6.136;2023-08-12T03:15:02;20.80;99.90
12568;DHT22;6349;50.904;6.136;2023-08-12T03:17:03;20.80;99.90
12568;DHT22;6349;50.904;6.136;2023-08-12T03:19:04;20.80;99.90
12568;DHT22;6349;50.904;6.136;2023-08-12T03:21:08;20.80;99.90
12568;DHT22;6349;50.904;6.136;2023-08-12T03:23:09;20.70;99.90
12568;DHT22;6349;50.904;6.136;2023-08-12T03:25:10;20.70;99.90
12568;DHT22;6349;50.904;6.136;2023-08-12T03:27:10;20.70;99.90
12568;DHT22;6349;50.904;6.136;2023-08-12T03:29:11;20.60;99.90
12568;DHT22;6349;50.904;6.136;2023-08-12T03:31:11;20.60;99.90
12568;DHT22;6349;50.904;6.136;2023-08-12T03:33:12;20.60;99.90
12568;DHT22;6349;50.904;6.136;2023-08-12T03:35:14;20.60;99.90
12568;DHT22;6349;50.904;6.136;2023-08-12T03:37:15;20.60;99.90
12568;DHT22;6349;50.904;6.136;2023-08-12T03:39:16;20.60;99.90
12568;DHT22;6349;50.904;6.136;2023-08-12T03:41:16;20.60;99.90
12568;DHT22;6349;50.904;6.136;2023-08-12T03:43:17;20.60;99.90
12568;DHT22;6349;50.904;6.136;2023-08-12T03:45:18;20.50;99.90
12568;DHT22;6349;50.904;6.136;2023-08-12T03:47:18;20.50;99.90
12568;DHT22;6349;50.904;6.136;2023-08-12T03:49:22;20.50;99.90
12568;DHT22;6349;50.904;6.136;2023-08-12T03:51:22;20.50;99.90
12568;DHT22;6349;50.904;6.136;2023-08-12T03:53:23;20.50;99.90
12568;DHT22;6349;50.904;6.136;2023-08-12T03:55:23;20.50;99.90
12568;DHT22;6349;50.904;6.136;2023-08-12T03:57:24;20.50;99.90
12568;DHT22;6349;50.904;6.136;2023-08-12T03:59:25;20.50;99.90
12568;DHT22;6349;50.904;6.136;2023-08-12T04:01:26;20.50;99.90
12568;DHT22;6349;50.904;6.136;2023-08-12T04:03:27;20.50;99.90
12568;DHT22;6349;50.904;6.136;2023-08-12T04:05:28;20.50;99.90
12568;DHT22;6349;50.904;6.136;2023-08-12T04:07:28;20.50;99.90
12568;DHT22;6349;50.904;6.136;2023-08-12T04:09:29;20.50;99.90
12568;DHT22;6349;50.904;6.136;2023-08-12T04:11:29;20.50;99.90
12568;DHT22;6349;50.904;6.136;2023-08-12T04:13:30;20.40;99.90
12568;DHT22;6349;50.904;6.136;2023-08-12T04:15:31;20.40;99.90
12568;DHT22;6349;50.904;6.136;2023-08-12T04:17:31;20.40;99.90
12568;DHT22;6349;50.904;6.136;2023-08-12T04:19:32;20.30;99.90
12568;DHT22;6349;50.904;6.136;2023-08-12T04:21:33;20.30;99.90
12568;DHT22;6349;50.904;6.136;2023-08-12T04:23:33;20.30;99.90
12568;DHT22;6349;50.904;6.136;2023-08-12T04:25:34;20.30;99.90
12568;DHT22;6349;50.904;6.136;2023-08-12T04:27:34;20.30;99.90
12568;DHT22;6349;50.904;6.136;2023-08-12T04:29:35;20.30;99.90
12568;DHT22;6349;50.904;6.136;2023-08-12T04:31:36;20.30;99.90
12568;DHT22;6349;50.904;6.136;2023-08-12T04:33:36;20.20;99.90
12568;DHT22;6349;50.904;6.136;2023-08-12T04:35:38;20.30;99.90
12568;DHT22;6349;50.904;6.136;2023-08-12T04:37:38;20.30;99.90
12568;DHT22;6349;50.904;6.136;2023-08-12T04:39:39;20.20;99.90
12568;DHT22;6349;50.904;6.136;2023-08-12T04:41:40;20.30;99.90
12568;DHT22;6349;50.904;6.136;2023-08-12T04:43:41;20.20;99.90
12568;DHT22;6349;50.904;6.136;2023-08-12T04:45:45;20.30;99.90
12568;DHT22;6349;50.904;6.136;2023-08-12T04:47:46;20.30;99.90
12568;DHT22;6349;50.904;6.136;2023-08-12T04:49:47;20.30;99.90
12568;DHT22;6349;50.904;6.136;2023-08-12T04:51:47;20.30;99.90
12568;DHT22;6349;50.904;6.136;2023-08-12T04:53:48;20.30;99.90
12568;DHT22;6349;50.904;6.136;2023-08-12T04:55:50;20.30;99.90
12568;DHT22;6349;50.904;6.136;2023-08-12T04:57:51;20.30;99.90
12568;DHT22;6349;50.904;6.136;2023-08-12T04:59:53;20.30;99.90
12568;DHT22;6349;50.904;6.136;2023-08-12T05:01:55;20.30;99.90
12568;DHT22;6349;50.904;6.136;2023-08-12T05:03:55;20.20;99.90
12568;DHT22;6349;50.904;6.136;2023-08-12T05:05:56;20.20;99.90
12568;DHT22;6349;50.904;6.136;2023-08-12T05:07:56;20.20;99.90
12568;DHT22;6349;50.904;6.136;2023-08-12T05:09:57;20.20;99.90
12568;DHT22;6349;50.904;6.136;2023-08-12T05:11:57;20.20;99.90
12568;DHT22;6349;50.904;6.136;2023-08-12T05:13:58;20.10;99.90
12568;DHT22;6349;50.904;6.136;2023-08-12T05:15:59;20.10;99.90
12568;DHT22;6349;50.904;6.136;2023-08-12T05:17:59;20.10;99.90
12568;DHT22;6349;50.904;6.136;2023-08-12T05:20:00;20.10;99.90
12568;DHT22;6349;50.904;6.136;2023-08-12T05:22:00;20.10;99.90
12568;DHT22;6349;50.904;6.136;2023-08-12T05:24:01;20.10;99.90
12568;DHT22;6349;50.904;6.136;2023-08-12T05:26:01;20.10;99.90
12568;DHT22;6349;50.904;6.136;2023-08-12T05:28:02;20.00;99.90
12568;DHT22;6349;50.904;6.136;2023-08-12T05:30:03;20.00;99.90
12568;DHT22;6349;50.904;6.136;2023-08-12T05:32:04;20.00;99.90
12568;DHT22;6349;50.904;6.136;2023-08-12T05:34:05;20.00;99.90
12568;DHT22;6349;50.904;6.136;2023-08-12T05:36:05;20.00;99.90
12568;DHT22;6349;50.904;6.136;2023-08-12T05:38:06;19.90;99.90
12568;DHT22;6349;50.904;6.136;2023-08-12T05:40:09;19.90;99.90
12568;DHT22;6349;50.904;6.136;2023-08-12T05:42:10;19.90;99.90
12568;DHT22;6349;50.904;6.136;2023-08-12T05:44:10;19.90;99.90
12568;DHT22;6349;50.904;6.136;2023-08-12T05:46:11;19.80;99.90
12568;DHT22;6349;50.904;6.136;2023-08-12T05:48:11;19.80;99.90
12568;DHT22;6349;50.904;6.136;2023-08-12T05:50:12;19.80;99.90
12568;DHT22;6349;50.904;6.136;2023-08-12T05:52:12;19.70;99.90
12568;DHT22;6349;50.904;6.136;2023-08-12T05:54:13;19.70;99.90
12568;DHT22;6349;50.904;6.136;2023-08-12T05:56:14;19.70;99.90
12568;DHT22;6349;50.904;6.136;2023-08-12T05:58:14;19.70;99.90
12568;DHT22;6349;50.904;6.136;2023-08-12T06:00:15;19.60;99.90
12568;DHT22;6349;50.904;6.136;2023-08-12T06:02:15;19.70;99.90
12568;DHT22;6349;50.904;6.136;2023-08-12T06:04:16;19.70;99.90
12568;DHT22;6349;50.904;6.136;2023-08-12T06:06:17;19.70;99.90
12568;DHT22;6349;50.904;6.136;2023-08-12T06:08:17;19.70;99.90
12568;DHT22;6349;50.904;6.136;2023-08-12T06:10:18;19.60;99.90
12568;DHT22;6349;50.904;6.136;2023-08-12T06:12:18;19.60;99.90
12568;DHT22;6349;50.904;6.136;2023-08-12T06:14:19;19.60;99.90
12568;DHT22;6349;50.904;6.136;2023-08-12T06:16:20;19.70;99.90
12568;DHT22;6349;50.904;6.136;2023-08-12T06:18:20;19.70;99.90
12568;DHT22;6349;50.904;6.136;2023-08-12T06:20:21;19.70;99.90
12568;DHT22;6349;50.904;6.136;2023-08-12T06:22:22;19.70;99.90
12568;DHT22;6349;50.904;6.136;2023-08-12T06:24:22;19.70;99.90
12568;DHT22;6349;50.904;6.136;2023-08-12T06:26:23;19.60;99.90
12568;DHT22;6349;50.904;6.136;2023-08-12T06:28:24;19.60;99.90
12568;DHT22;6349;50.904;6.136;2023-08-12T06:30:24;19.70;99.90
12568;DHT22;6349;50.904;6.136;2023-08-12T06:32:25;19.70;99.90
12568;DHT22;6349;50.904;6.136;2023-08-12T06:34:25;19.70;99.90
12568;DHT22;6349;50.904;6.136;2023-08-12T06:36:26;19.70;99.90
12568;DHT22;6349;50.904;6.136;2023-08-12T06:38:27;19.70;99.90
12568;DHT22;6349;50.904;6.136;2023-08-12T06:40:27;19.70;99.90
12568;DHT22;6349;50.904;6.136;2023-08-12T06:42:28;19.80;99.90
12568;DHT22;6349;50.904;6.136;2023-08-12T06:44:30;19.90;99.90
12568;DHT22;6349;50.904;6.136;2023-08-12T06:46:30;19.80;99.90
12568;DHT22;6349;50.904;6.136;2023-08-12T06:48:31;19.90;99.90
12568;DHT22;6349;50.904;6.136;2023-08-12T06:50:31;19.90;99.90
12568;DHT22;6349;50.904;6.136;2023-08-12T06:52:33;19.90;99.90
12568;DHT22;6349;50.904;6.136;2023-08-12T06:54:34;19.90;99.90
12568;DHT22;6349;50.904;6.136;2023-08-12T06:56:34;19.90;99.90
12568;DHT22;6349;50.904;6.136;2023-08-12T06:58:35;19.90;99.90
12568;DHT22;6349;50.904;6.136;2023-08-12T07:00:35;19.90;99.90
12568;DHT22;6349;50.904;6.136;2023-08-12T07:02:36;20.00;99.90
12568;DHT22;6349;50.904;6.136;2023-08-12T07:04:36;20.00;99.90
12568;DHT22;6349;50.904;6.136;2023-08-12T07:06:37;19.90;99.90
12568;DHT22;6349;50.904;6.136;2023-08-12T07:08:38;19.90;99.90
12568;DHT22;6349;50.904;6.136;2023-08-12T07:10:39;19.90;99.90
12568;DHT22;6349;50.904;6.136;2023-08-12T07:12:40;19.90;99.90
12568;DHT22;6349;50.904;6.136;2023-08-12T07:14:40;20.00;99.90
12568;DHT22;6349;50.904;6.136;2023-08-12T07:16:41;20.00;99.90
12568;DHT22;6349;50.904;6.136;2023-08-12T07:18:42;20.00;99.90
12568;DHT22;6349;50.904;6.136;2023-08-12T07:20:42;20.00;99.90
12568;DHT22;6349;50.904;6.136;2023-08-12T07:22:43;20.00;99.90
12568;DHT22;6349;50.904;6.136;2023-08-12T07:24:44;20.00;99.90
12568;DHT22;6349;50.904;6.136;2023-08-12T07:26:44;20.10;99.90
12568;DHT22;6349;50.904;6.136;2023-08-12T07:28:45;20.10;99.90
12568;DHT22;6349;50.904;6.136;2023-08-12T07:30:45;20.10;99.90
12568;DHT22;6349;50.904;6.136;2023-08-12T07:32:46;20.20;99.90
12568;DHT22;6349;50.904;6.136;2023-08-12T07:34:46;20.30;99.90
12568;DHT22;6349;50.904;6.136;2023-08-12T07:36:47;20.30;99.90
12568;DHT22;6349;50.904;6.136;2023-08-12T07:38:48;20.20;99.90
12568;DHT22;6349;50.904;6.136;2023-08-12T07:40:49;20.30;99.90
12568;DHT22;6349;50.904;6.136;2023-08-12T07:42:50;20.40;99.90
12568;DHT22;6349;50.904;6.136;2023-08-12T07:44:50;20.30;99.90
12568;DHT22;6349;50.904;6.136;2023-08-12T07:46:51;20.40;99.90
12568;DHT22;6349;50.904;6.136;2023-08-12T07:48:51;20.40;99.90
12568;DHT22;6349;50.904;6.136;2023-08-12T07:50:58;20.40;99.90
12568;DHT22;6349;50.904;6.136;2023-08-12T07:52:59;20.40;99.90
12568;DHT22;6349;50.904;6.136;2023-08-12T07:54:59;20.40;99.90
12568;DHT22;6349;50.904;6.136;2023-08-12T07:57:00;20.40;99.90
12568;DHT22;6349;50.904;6.136;2023-08-12T07:59:01;20.40;99.90
12568;DHT22;6349;50.904;6.136;2023-08-12T08:01:01;20.50;99.90
12568;DHT22;6349;50.904;6.136;2023-08-12T08:03:02;20.50;99.90
12568;DHT22;6349;50.904;6.136;2023-08-12T08:05:03;20.50;99.90
12568;DHT22;6349;50.904;6.136;2023-08-12T08:07:03;20.50;99.90
12568;DHT22;6349;50.904;6.136;2023-08-12T08:09:04;20.50;99.90
12568;DHT22;6349;50.904;6.136;2023-08-12T08:11:05;20.50;99.90
12568;DHT22;6349;50.904;6.136;2023-08-12T08:13:05;20.50;99.90
12568;DHT22;6349;50.904;6.136;2023-08-12T08:15:06;20.50;99.90
12568;DHT22;6349;50.904;6.136;2023-08-12T08:17:07;20.50;99.90
12568;DHT22;6349;50.904;6.136;2023-08-12T08:19:08;20.50;99.90
12568;DHT22;6349;50.904;6.136;2023-08-12T08:21:09;20.60;99.90
12568;DHT22;6349;50.904;6.136;2023-08-12T08:23:10;20.60;99.90
12568;DHT22;6349;50.904;6.136;2023-08-12T08:25:11;20.70;99.90
12568;DHT22;6349;50.904;6.136;2023-08-12T08:27:11;20.70;99.90
12568;DHT22;6349;50.904;6.136;2023-08-12T08:29:14;20.70;99.90
12568;DHT22;6349;50.904;6.136;2023-08-12T08:31:14;20.70;99.90
12568;DHT22;6349;50.904;6.136;2023-08-12T08:33:15;20.80;99.90
12568;DHT22;6349;50.904;6.136;2023-08-12T08:35:15;20.90;99.90
12568;DHT22;6349;50.904;6.136;2023-08-12T08:37:16;21.00;99.90
12568;DHT22;6349;50.904;6.136;2023-08-12T08:39:17;21.10;99.90
12568;DHT22;6349;50.904;6.136;2023-08-12T08:41:17;21.10;99.90
12568;DHT22;6349;50.904;6.136;2023-08-12T08:43:21;21.20;99.90
12568;DHT22;6349;50.904;6.136;2023-08-12T08:45:25;21.30;99.90
12568;DHT22;6349;50.904;6.136;2023-08-12T08:47:27;21.40;99.90
12568;DHT22;6349;50.904;6.136;2023-08-12T08:49:28;21.50;99.90
12568;DHT22;6349;50.904;6.136;2023-08-12T08:51:31;21.50;99.90
12568;DHT22;6349;50.904;6.136;2023-08-12T08:53:38;21.50;99.90
12568;DHT22;6349;50.904;6.136;2023-08-12T08:55:41;21.50;99.90
12568;DHT22;6349;50.904;6.136;2023-08-12T08:57:43;21.50;99.90
12568;DHT22;6349;50.904;6.136;2023-08-12T08:59:45;21.50;99.90
12568;DHT22;6349;50.904;6.136;2023-08-12T09:01:46;21.60;99.90
12568;DHT22;6349;50.904;6.136;2023-08-12T09:03:47;21.60;99.90
12568;DHT22;6349;50.904;6.136;2023-08-12T09:05:50;21.60;99.90
12568;DHT22;6349;50.904;6.136;2023-08-12T09:07:53;21.70;99.90
12568;DHT22;6349;50.904;6.136;2023-08-12T09:09:56;21.80;99.90
12568;DHT22;6349;50.904;6.136;2023-08-12T09:11:58;21.90;99.90
12568;DHT22;6349;50.904;6.136;2023-08-12T09:13:59;22.00;99.90
12568;DHT22;6349;50.904;6.136;2023-08-12T09:15:59;22.00;99.90
12568;DHT22;6349;50.904;6.136;2023-08-12T09:18:00;22.10;99.90
12568;DHT22;6349;50.904;6.136;2023-08-12T09:20:00;22.30;99.90
12568;DHT22;6349;50.904;6.136;2023-08-12T09:22:03;22.40;99.90
12568;DHT22;6349;50.904;6.136;2023-08-12T09:24:05;22.50;99.90
12568;DHT22;6349;50.904;6.136;2023-08-12T09:26:16;22.60;99.90
12568;DHT22;6349;50.904;6.136;2023-08-12T09:28:18;22.60;99.90
12568;DHT22;6349;50.904;6.136;2023-08-12T09:30:20;22.60;99.90
12568;DHT22;6349;50.904;6.136;2023-08-12T09:32:21;22.60;99.90
12568;DHT22;6349;50.904;6.136;2023-08-12T09:34:24;22.50;99.90
12568;DHT22;6349;50.904;6.136;2023-08-12T09:36:27;22.50;99.90
12568;DHT22;6349;50.904;6.136;2023-08-12T09:38:28;22.50;99.90
12568;DHT22;6349;50.904;6.136;2023-08-12T09:40:30;22.50;99.90
12568;DHT22;6349;50.904;6.136;2023-08-12T09:42:30;22.60;99.90
12568;DHT22;6349;50.904;6.136;2023-08-12T09:44:37;22.80;99.90
12568;DHT22;6349;50.904;6.136;2023-08-12T09:46:38;22.90;99.90
12568;DHT22;6349;50.904;6.136;2023-08-12T09:48:39;23.00;99.90
12568;DHT22;6349;50.904;6.136;2023-08-12T09:50:40;23.00;99.90
12568;DHT22;6349;50.904;6.136;2023-08-12T09:52:41;22.90;99.90
12568;DHT22;6349;50.904;6.136;2023-08-12T09:54:42;23.00;99.90
12568;DHT22;6349;50.904;6.136;2023-08-12T09:56:47;23.00;99.90
12568;DHT22;6349;50.904;6.136;2023-08-12T09:58:49;22.90;99.90
12568;DHT22;6349;50.904;6.136;2023-08-12T10:00:51;22.80;99.90
12568;DHT22;6349;50.904;6.136;2023-08-12T10:02:52;22.80;99.90
12568;DHT22;6349;50.904;6.136;2023-08-12T10:04:54;22.80;99.90
12568;DHT22;6349;50.904;6.136;2023-08-12T10:06:56;22.80;99.90
12568;DHT22;6349;50.904;6.136;2023-08-12T10:08:57;22.70;99.90
12568;DHT22;6349;50.904;6.136;2023-08-12T10:10:58;22.70;99.90
12568;DHT22;6349;50.904;6.136;2023-08-12T10:12:59;22.70;99.90
12568;DHT22;6349;50.904;6.136;2023-08-12T10:15:02;22.60;99.90
12568;DHT22;6349;50.904;6.136;2023-08-12T10:17:02;22.50;99.90
12568;DHT22;6349;50.904;6.136;2023-08-12T10:19:07;22.50;99.90
12568;DHT22;6349;50.904;6.136;2023-08-12T10:21:12;22.40;99.90
12568;DHT22;6349;50.904;6.136;2023-08-12T10:23:16;22.40;99.90
12568;DHT22;6349;50.904;6.136;2023-08-12T10:25:18;22.30;99.90
12568;DHT22;6349;50.904;6.136;2023-08-12T10:27:20;22.40;99.90
12568;DHT22;6349;50.904;6.136;2023-08-12T10:29:23;22.30;99.90
12568;DHT22;6349;50.904;6.136;2023-08-12T10:31:26;22.30;99.90
12568;DHT22;6349;50.904;6.136;2023-08-12T10:33:28;22.30;99.90
12568;DHT22;6349;50.904;6.136;2023-08-12T10:35:46;22.30;99.90
12568;DHT22;6349;50.904;6.136;2023-08-12T10:37:49;22.30;99.90
12568;DHT22;6349;50.904;6.136;2023-08-12T10:39:54;22.20;99.90
12568;DHT22;6349;50.904;6.136;2023-08-12T10:41:55;22.20;99.90
12568;DHT22;6349;50.904;6.136;2023-08-12T10:43:59;22.20;99.90
12568;DHT22;6349;50.904;6.136;2023-08-12T10:46:00;22.20;99.90
12568;DHT22;6349;50.904;6.136;2023-08-12T10:48:16;22.30;99.90
12568;DHT22;6349;50.904;6.136;2023-08-12T10:50:20;22.30;99.90
12568;DHT22;6349;50.904;6.136;2023-08-12T10:52:28;22.40;99.90
12568;DHT22;6349;50.904;6.136;2023-08-12T10:54:29;22.40;99.90
12568;DHT22;6349;50.904;6.136;2023-08-12T10:56:30;22.40;99.90
12568;DHT22;6349;50.904;6.136;2023-08-12T10:58:44;22.50;99.90
12568;DHT22;6349;50.904;6.136;2023-08-12T11:00:53;22.60;99.90
12568;DHT22;6349;50.904;6.136;2023-08-12T11:02:55;22.50;99.90
12568;DHT22;6349;50.904;6.136;2023-08-12T11:05:02;22.60;99.90
12568;DHT22;6349;50.904;6.136;2023-08-12T11:07:18;22.70;99.90
12568;DHT22;6349;50.904;6.136;2023-08-12T11:09:19;22.80;99.90
12568;DHT22;6349;50.904;6.136;2023-08-12T11:11:22;22.80;99.90
12568;DHT22;6349;50.904;6.136;2023-08-12T11:13:23;22.70;99.90
12568;DHT22;6349;50.904;6.136;2023-08-12T11:15:43;22.70;99.90
12568;DHT22;6349;50.904;6.136;2023-08-12T11:17:47;22.80;99.90
12568;DHT22;6349;50.904;6.136;2023-08-12T11:19:48;22.80;99.90
12568;DHT22;6349;50.904;6.136;2023-08-12T11:21:49;22.90;99.90
12568;DHT22;6349;50.904;6.136;2023-08-12T11:23:54;23.00;99.90
12568;DHT22;6349;50.904;6.136;2023-08-12T11:25:55;23.10;99.90
12568;DHT22;6349;50.904;6.136;2023-08-12T11:27:56;23.10;99.90
12568;DHT22;6349;50.904;6.136;2023-08-12T11:29:57;23.20;99.90
12568;DHT22;6349;50.904;6.136;2023-08-12T11:31:58;23.30;99.90
12568;DHT22;6349;50.904;6.136;2023-08-12T11:33:59;23.40;99.90
12568;DHT22;6349;50.904;6.136;2023-08-12T11:36:00;23.50;99.90
12568;DHT22;6349;50.904;6.136;2023-08-12T11:38:01;23.60;99.90
12568;DHT22;6349;50.904;6.136;2023-08-12T11:40:03;23.70;99.90
12568;DHT22;6349;50.904;6.136;2023-08-12T11:42:04;23.70;99.90
12568;DHT22;6349;50.904;6.136;2023-08-12T11:44:05;23.70;99.90
12568;DHT22;6349;50.904;6.136;2023-08-12T11:46:05;23.70;99.90
12568;DHT22;6349;50.904;6.136;2023-08-12T11:48:06;23.60;99.90
12568;DHT22;6349;50.904;6.136;2023-08-12T11:50:08;23.40;99.90
12568;DHT22;6349;50.904;6.136;2023-08-12T11:52:10;23.40;99.90
12568;DHT22;6349;50.904;6.136;2023-08-12T11:54:11;23.30;99.90
12568;DHT22;6349;50.904;6.136;2023-08-12T11:56:12;23.20;99.90
12568;DHT22;6349;50.904;6.136;2023-08-12T11:58:14;23.00;99.90
12568;DHT22;6349;50.904;6.136;2023-08-12T12:00:19;22.80;99.90
12568;DHT22;6349;50.904;6.136;2023-08-12T12:02:20;22.80;99.90
12568;DHT22;6349;50.904;6.136;2023-08-12T12:04:21;22.70;99.90
12568;DHT22;6349;50.904;6.136;2023-08-12T12:06:37;22.70;99.90
12568;DHT22;6349;50.904;6.136;2023-08-12T12:08:39;22.70;99.90
12568;DHT22;6349;50.904;6.136;2023-08-12T12:10:39;22.70;99.90
12568;DHT22;6349;50.904;6.136;2023-08-12T12:12:40;22.70;99.90
12568;DHT22;6349;50.904;6.136;2023-08-12T12:14:41;22.80;99.90
12568;DHT22;6349;50.904;6.136;2023-08-12T12:16:47;22.80;99.90
12568;DHT22;6349;50.904;6.136;2023-08-12T12:18:47;22.80;99.90
12568;DHT22;6349;50.904;6.136;2023-08-12T12:20:55;22.80;99.90
12568;DHT22;6349;50.904;6.136;2023-08-12T12:23:05;22.60;99.90
12568;DHT22;6349;50.904;6.136;2023-08-12T12:25:08;22.50;99.90
12568;DHT22;6349;50.904;6.136;2023-08-12T12:27:09;22.40;99.90
12568;DHT22;6349;50.904;6.136;2023-08-12T12:29:10;22.30;99.90
12568;DHT22;6349;50.904;6.136;2023-08-12T12:31:13;22.20;99.90
12568;DHT22;6349;50.904;6.136;2023-08-12T12:33:14;22.10;99.90
12568;DHT22;6349;50.904;6.136;2023-08-12T12:35:16;22.10;99.90
12568;DHT22;6349;50.904;6.136;2023-08-12T12:37:16;22.00;99.90
12568;DHT22;6349;50.904;6.136;2023-08-12T12:39:17;21.90;99.90
12568;DHT22;6349;50.904;6.136;2023-08-12T12:41:18;21.90;99.90
12568;DHT22;6349;50.904;6.136;2023-08-12T12:43:18;21.90;99.90
12568;DHT22;6349;50.904;6.136;2023-08-12T12:45:19;22.00;99.90
12568;DHT22;6349;50.904;6.136;2023-08-12T12:47:19;22.00;99.90
12568;DHT22;6349;50.904;6.136;2023-08-12T12:49:20;22.10;99.90
12568;DHT22;6349;50.904;6.136;2023-08-12T12:51:20;22.10;99.90
12568;DHT22;6349;50.904;6.136;2023-08-12T12:53:21;22.20;99.90
12568;DHT22;6349;50.904;6.136;2023-08-12T12:55:22;22.30;99.90
12568;DHT22;6349;50.904;6.136;2023-08-12T12:57:22;22.40;99.90
12568;DHT22;6349;50.904;6.136;2023-08-12T12:59:23;22.50;99.90
12568;DHT22;6349;50.904;6.136;2023-08-12T13:01:24;22.60;99.90